Pagina principală
METAR-TAF:

METAR-TAF

Aeroporturi :

Baza 71 Aeriană

Câmpia Turzii, România

Latitudine: 46-30-12N, longitudine: 023-53-07E, elevație: 324 m

Observații meteo curente

Raportul a fost făcut în urmă cu 4 ore și 5 de minute, la 13:00 UTC
Vânt 4 kt de la Sud/Sud-vest
Temperatură 14°C
Umiditate 41%
Presiune 1009 hPa
Vizibilitate de 10 km sau mai mult
Nori puțini la o înălțime de 2500 picior
Nori împrăștiați la o înălțime de 5500 picior

METAR: LRCT 201300Z 21004KT 9999 FEW025 SCT055 14/01 Q1009 BLU BLU

Ora: 20:05 (17:05 UTC)


TAF: lipsă

Observații și prognoze meteo pentru peste 4.000 de aeroporturi (rapoarte METAR și TAF).

Stațiile disponibile sunt reprezentate pe hartă prin puncte galbene și roșii.

Țineți indicatorul mouse-ului pe punctul dorit pentru a vedea denumirea stației.

Apoi, faceți clic pentru a vedea observațiile și prognozele meteorologice.

Pentru a schimba harta: Pentru mărire, faceți clic pe butoanele verzi cu cruce neagră; pentru micșorare, pe butonul verde cu o liniuță; pentru hărți învecinate, pe săgețile verzi.


METAR-TAF: